BWA652 MDPP-MYNN
Flight info
| Callsign | BWA652 |
|---|---|
| Flight time | N/A |
| Altitude | 38000 |
| Route | MALVN3C MALVN Y396 RUMFO DCT ZQA136085 DCT BOSAR |
| Aircraft | B736/M-SDE2E3FGHIRWXY/LB1 |
Departure
| Time | 2026-04-30 00:51 |
|---|---|
| Airport | Gregorio Luperon International Airport (MDPP) |
Arrival
| Time | N/A |
|---|---|
| Airport | Lynden Pindling International Airport (MYNN) |
| Time | Latitude | Longitude | Altitude | Speed | Heading |
|---|---|---|---|---|---|
| 2026-04-30 00:24 | 19.75506 | -70.56520 | 48 ft | 0 kts | 42° |
| 2026-04-30 00:38 | 19.75500 | -70.56526 | 45 ft | 3 kts | 43° |
| 2026-04-30 00:39 | 19.75486 | -70.56539 | 46 ft | 3 kts | 23° |
| 2026-04-30 00:39 | 19.75468 | -70.56540 | 45 ft | 3 kts | 1° |
| 2026-04-30 00:39 | 19.75458 | -70.56547 | 44 ft | 3 kts | 54° |
| 2026-04-30 00:39 | 19.75445 | -70.56564 | 48 ft | 3 kts | 42° |
| 2026-04-30 00:40 | 19.75429 | -70.56575 | 48 ft | 3 kts | 4° |
| 2026-04-30 00:40 | 19.75419 | -70.56574 | 48 ft | 0 kts | 342° |
| 2026-04-30 00:42 | 19.75422 | -70.56575 | 48 ft | 4 kts | 342° |
| 2026-04-30 00:42 | 19.75467 | -70.56590 | 48 ft | 7 kts | 343° |
| 2026-04-30 00:43 | 19.75514 | -70.56604 | 48 ft | 7 kts | 343° |
| 2026-04-30 00:43 | 19.75560 | -70.56618 | 48 ft | 7 kts | 345° |
| 2026-04-30 00:43 | 19.75605 | -70.56631 | 48 ft | 7 kts | 344° |
| 2026-04-30 00:43 | 19.75632 | -70.56664 | 46 ft | 7 kts | 271° |
| 2026-04-30 00:44 | 19.75620 | -70.56712 | 47 ft | 7 kts | 253° |
| 2026-04-30 00:44 | 19.75604 | -70.56769 | 46 ft | 9 kts | 253° |
| 2026-04-30 00:44 | 19.75584 | -70.56836 | 42 ft | 10 kts | 252° |
| 2026-04-30 00:44 | 19.75562 | -70.56912 | 43 ft | 12 kts | 253° |
| 2026-04-30 00:45 | 19.75536 | -70.57004 | 42 ft | 14 kts | 253° |
| 2026-04-30 00:45 | 19.75593 | -70.57114 | 39 ft | 13 kts | 313° |
| 2026-04-30 00:45 | 19.75636 | -70.57161 | 39 ft | 12 kts | 315° |
| 2026-04-30 00:45 | 19.75647 | -70.57173 | 37 ft | 0 kts | 314° |
| 2026-04-30 00:47 | 19.75671 | -70.57200 | 38 ft | 10 kts | 313° |
| 2026-04-30 00:47 | 19.75703 | -70.57280 | 35 ft | 14 kts | 267° |
| 2026-04-30 00:47 | 19.75664 | -70.57425 | 34 ft | 25 kts | 253° |
| 2026-04-30 00:48 | 19.75614 | -70.57598 | 31 ft | 24 kts | 252° |
| 2026-04-30 00:48 | 19.75567 | -70.57759 | 32 ft | 23 kts | 253° |
| 2026-04-30 00:48 | 19.75522 | -70.57917 | 33 ft | 22 kts | 253° |
| 2026-04-30 00:48 | 19.75477 | -70.58069 | 34 ft | 21 kts | 252° |
| 2026-04-30 00:49 | 19.75434 | -70.58217 | 33 ft | 21 kts | 253° |
| 2026-04-30 00:49 | 19.75388 | -70.58336 | 32 ft | 14 kts | 241° |
| 2026-04-30 00:49 | 19.75387 | -70.58393 | 31 ft | 3 kts | 328° |
| 2026-04-30 00:49 | 19.75392 | -70.58390 | 31 ft | 1 kts | 17° |
| 2026-04-30 00:50 | 19.75395 | -70.58383 | 30 ft | 2 kts | 67° |
| 2026-04-30 00:50 | 19.75398 | -70.58351 | 32 ft | 5 kts | 78° |
| 2026-04-30 00:50 | 19.75422 | -70.58265 | 33 ft | 26 kts | 73° |
| 2026-04-30 00:50 | 19.75532 | -70.57882 | 34 ft | 92 kts | 73° |
| 2026-04-30 00:51 | 19.75796 | -70.56968 | 40 ft | 161 kts | 73° |
| 2026-04-30 00:51 | 19.76141 | -70.55703 | 463 ft | 185 kts | 75° |
| 2026-04-30 00:51 | 19.76493 | -70.54439 | 1634 ft | 170 kts | 72° |
| 2026-04-30 00:51 | 19.76836 | -70.53264 | 2622 ft | 170 kts | 73° |
| 2026-04-30 00:52 | 19.77230 | -70.51955 | 2980 ft | 203 kts | 68° |
| 2026-04-30 00:52 | 19.78176 | -70.50734 | 3220 ft | 233 kts | 32° |
| 2026-04-30 00:52 | 19.79786 | -70.50395 | 3812 ft | 246 kts | 352° |
| 2026-04-30 00:52 | 19.81476 | -70.50867 | 4455 ft | 261 kts | 357° |
| 2026-04-30 00:53 | 19.83262 | -70.50481 | 5167 ft | 268 kts | 24° |
| 2026-04-30 00:53 | 19.85023 | -70.49735 | 6023 ft | 275 kts | 21° |
| 2026-04-30 00:53 | 19.86846 | -70.49068 | 6938 ft | 278 kts | 18° |
| 2026-04-30 00:53 | 19.88703 | -70.48448 | 7852 ft | 282 kts | 17° |
| 2026-04-30 00:54 | 19.90566 | -70.47849 | 8763 ft | 285 kts | 16° |
| 2026-04-30 00:54 | 19.92497 | -70.47315 | 9697 ft | 288 kts | 7° |
| 2026-04-30 00:54 | 19.94503 | -70.47144 | 10487 ft | 295 kts | 1° |
| 2026-04-30 00:54 | 19.96633 | -70.47217 | 10727 ft | 321 kts | 346° |
| 2026-04-30 00:55 | 19.98681 | -70.48257 | 11183 ft | 334 kts | 320° |
| 2026-04-30 00:55 | 20.00137 | -70.50187 | 11885 ft | 339 kts | 293° |
| 2026-04-30 00:55 | 20.00740 | -70.55123 | 13669 ft | 342 kts | 271° |
| 2026-04-30 00:56 | 20.00783 | -70.57675 | 14336 ft | 349 kts | 270° |
| 2026-04-30 00:56 | 20.00816 | -70.60271 | 15079 ft | 352 kts | 270° |
| 2026-04-30 00:56 | 20.00857 | -70.62853 | 15873 ft | 354 kts | 270° |
| 2026-04-30 00:56 | 20.00910 | -70.65520 | 16618 ft | 359 kts | 270° |
| 2026-04-30 00:57 | 20.00973 | -70.68189 | 17366 ft | 363 kts | 270° |
| 2026-04-30 00:57 | 20.01042 | -70.70850 | 18117 ft | 366 kts | 270° |
| 2026-04-30 00:57 | 20.01118 | -70.73603 | 18813 ft | 369 kts | 270° |
| 2026-04-30 00:57 | 20.01195 | -70.76344 | 19517 ft | 371 kts | 270° |
| 2026-04-30 00:58 | 20.01272 | -70.79088 | 20241 ft | 372 kts | 270° |
| 2026-04-30 00:58 | 20.01349 | -70.81807 | 20924 ft | 374 kts | 269° |
| 2026-04-30 00:58 | 20.01427 | -70.84587 | 21580 ft | 377 kts | 269° |
| 2026-04-30 00:58 | 20.01505 | -70.87381 | 22229 ft | 379 kts | 269° |
| 2026-04-30 00:59 | 20.01584 | -70.90200 | 22898 ft | 381 kts | 269° |
| 2026-04-30 00:59 | 20.01661 | -70.93022 | 23542 ft | 383 kts | 269° |
| 2026-04-30 00:59 | 20.01740 | -70.95872 | 24056 ft | 386 kts | 269° |
| 2026-04-30 00:59 | 20.01818 | -70.98722 | 24569 ft | 388 kts | 269° |
| 2026-04-30 01:00 | 20.01895 | -71.01566 | 25103 ft | 389 kts | 269° |
| 2026-04-30 01:00 | 20.01973 | -71.04445 | 25663 ft | 390 kts | 269° |
| 2026-04-30 01:00 | 20.02050 | -71.07332 | 26185 ft | 391 kts | 269° |
| 2026-04-30 01:00 | 20.02263 | -71.10237 | 26674 ft | 398 kts | 278° |
| 2026-04-30 01:01 | 20.03231 | -71.13020 | 27177 ft | 408 kts | 293° |
| 2026-04-30 01:01 | 20.04871 | -71.15527 | 27700 ft | 419 kts | 306° |
| 2026-04-30 01:01 | 20.07144 | -71.17542 | 28135 ft | 434 kts | 320° |
| 2026-04-30 01:01 | 20.09715 | -71.19217 | 28600 ft | 439 kts | 322° |
| 2026-04-30 01:02 | 20.12405 | -71.20870 | 29009 ft | 443 kts | 323° |
| 2026-04-30 01:02 | 20.15057 | -71.22482 | 29424 ft | 445 kts | 322° |
| 2026-04-30 01:02 | 20.17747 | -71.24133 | 29857 ft | 446 kts | 322° |
| 2026-04-30 01:02 | 20.20444 | -71.25810 | 30273 ft | 447 kts | 321° |
| 2026-04-30 01:03 | 20.23115 | -71.27490 | 30795 ft | 444 kts | 321° |
| 2026-04-30 01:03 | 20.25748 | -71.29154 | 31423 ft | 439 kts | 320° |
| 2026-04-30 01:03 | 20.28364 | -71.30813 | 32052 ft | 434 kts | 320° |
| 2026-04-30 01:03 | 20.30954 | -71.32460 | 32612 ft | 432 kts | 320° |
| 2026-04-30 01:04 | 20.33521 | -71.34095 | 33140 ft | 430 kts | 319° |
| 2026-04-30 01:04 | 20.36081 | -71.35724 | 33714 ft | 427 kts | 319° |
| 2026-04-30 01:04 | 20.38626 | -71.37340 | 34266 ft | 423 kts | 319° |
| 2026-04-30 01:04 | 20.41115 | -71.38979 | 34645 ft | 418 kts | 314° |
| 2026-04-30 01:05 | 20.43170 | -71.41060 | 34898 ft | 402 kts | 301° |
| 2026-04-30 01:05 | 20.44917 | -71.43391 | 35259 ft | 400 kts | 300° |
| 2026-04-30 01:05 | 20.46629 | -71.45731 | 35626 ft | 400 kts | 300° |
| 2026-04-30 01:05 | 20.48335 | -71.48074 | 35949 ft | 400 kts | 300° |
| 2026-04-30 01:06 | 20.50048 | -71.50419 | 36261 ft | 401 kts | 300° |
| 2026-04-30 01:06 | 20.51767 | -71.52760 | 36589 ft | 401 kts | 300° |
| 2026-04-30 01:06 | 20.53493 | -71.55098 | 36908 ft | 401 kts | 300° |
| 2026-04-30 01:06 | 20.55226 | -71.57437 | 37211 ft | 401 kts | 300° |
| 2026-04-30 01:07 | 20.56961 | -71.59776 | 37486 ft | 402 kts | 301° |
| 2026-04-30 01:07 | 20.58702 | -71.62121 | 37764 ft | 403 kts | 301° |
| 2026-04-30 01:07 | 20.60451 | -71.64474 | 38036 ft | 404 kts | 301° |
| 2026-04-30 01:07 | 20.62189 | -71.66817 | 38009 ft | 409 kts | 301° |
| 2026-04-30 01:08 | 20.65745 | -71.71605 | 38022 ft | 407 kts | 301° |
| 2026-04-30 01:08 | 20.69230 | -71.76292 | 38022 ft | 400 kts | 301° |
| 2026-04-30 01:09 | 20.72672 | -71.80936 | 38027 ft | 401 kts | 301° |
| 2026-04-30 01:09 | 20.76140 | -71.85622 | 38020 ft | 402 kts | 301° |
| 2026-04-30 01:10 | 20.79617 | -71.90322 | 38020 ft | 403 kts | 301° |
| 2026-04-30 01:10 | 20.83098 | -71.95030 | 38015 ft | 403 kts | 301° |
| 2026-04-30 01:11 | 20.86588 | -71.99755 | 38017 ft | 404 kts | 301° |
| 2026-04-30 01:11 | 20.90066 | -72.04467 | 38020 ft | 404 kts | 301° |
| 2026-04-30 01:12 | 20.93554 | -72.09196 | 38013 ft | 405 kts | 301° |
| 2026-04-30 01:12 | 20.97028 | -72.13910 | 38015 ft | 405 kts | 301° |
| 2026-04-30 01:13 | 21.00535 | -72.18672 | 38018 ft | 405 kts | 301° |
| 2026-04-30 01:13 | 21.04020 | -72.23408 | 38017 ft | 405 kts | 301° |
| 2026-04-30 01:14 | 21.07494 | -72.28135 | 38013 ft | 405 kts | 301° |
| 2026-04-30 01:14 | 21.10974 | -72.32872 | 38014 ft | 405 kts | 301° |
| 2026-04-30 01:15 | 21.14445 | -72.37602 | 38014 ft | 404 kts | 301° |
| 2026-04-30 01:15 | 21.17927 | -72.42351 | 38013 ft | 404 kts | 301° |
| 2026-04-30 01:16 | 21.21390 | -72.47079 | 38013 ft | 404 kts | 301° |
| 2026-04-30 01:16 | 21.24865 | -72.51827 | 38013 ft | 403 kts | 301° |
| 2026-04-30 01:17 | 21.28327 | -72.56560 | 38010 ft | 403 kts | 301° |
| 2026-04-30 01:17 | 21.31775 | -72.61278 | 38011 ft | 403 kts | 301° |
| 2026-04-30 01:18 | 21.35234 | -72.66017 | 38012 ft | 403 kts | 301° |
| 2026-04-30 01:18 | 21.38676 | -72.70736 | 38010 ft | 403 kts | 302° |
| 2026-04-30 01:19 | 21.42162 | -72.75518 | 38010 ft | 403 kts | 302° |
| 2026-04-30 01:19 | 21.45612 | -72.80257 | 38016 ft | 404 kts | 302° |
| 2026-04-30 01:20 | 21.49067 | -72.85005 | 38014 ft | 404 kts | 302° |
| 2026-04-30 01:20 | 21.52515 | -72.89748 | 38016 ft | 404 kts | 302° |
| 2026-04-30 01:21 | 21.55982 | -72.94522 | 38016 ft | 405 kts | 302° |
| 2026-04-30 01:21 | 21.59432 | -72.99276 | 38016 ft | 405 kts | 302° |
| 2026-04-30 01:22 | 21.62903 | -73.04063 | 38013 ft | 406 kts | 302° |
| 2026-04-30 01:22 | 21.65801 | -73.08064 | 38013 ft | 406 kts | 302° |
| 2026-04-30 01:23 | 21.69293 | -73.12887 | 38015 ft | 407 kts | 302° |
| 2026-04-30 01:23 | 21.72751 | -73.17668 | 38014 ft | 407 kts | 302° |
| 2026-04-30 01:24 | 21.76235 | -73.22490 | 38015 ft | 407 kts | 302° |
| 2026-04-30 01:24 | 21.79701 | -73.27290 | 38019 ft | 407 kts | 302° |
| 2026-04-30 01:25 | 21.83199 | -73.32139 | 38016 ft | 408 kts | 302° |
| 2026-04-30 01:25 | 21.86675 | -73.36962 | 38020 ft | 408 kts | 302° |
| 2026-04-30 01:26 | 21.90127 | -73.41757 | 38019 ft | 408 kts | 302° |
| 2026-04-30 01:26 | 21.93596 | -73.46578 | 38019 ft | 407 kts | 302° |
| 2026-04-30 01:27 | 21.97074 | -73.51416 | 38018 ft | 407 kts | 302° |
| 2026-04-30 01:27 | 22.00541 | -73.56245 | 38019 ft | 407 kts | 302° |
| 2026-04-30 01:28 | 22.04017 | -73.61089 | 38019 ft | 407 kts | 302° |
| 2026-04-30 01:28 | 22.07463 | -73.65896 | 38020 ft | 407 kts | 302° |
| 2026-04-30 01:29 | 22.10929 | -73.70736 | 38020 ft | 406 kts | 302° |
| 2026-04-30 01:29 | 22.14370 | -73.75545 | 38020 ft | 406 kts | 302° |
| 2026-04-30 01:30 | 22.17825 | -73.80377 | 38018 ft | 406 kts | 302° |
| 2026-04-30 01:30 | 22.21274 | -73.85206 | 38020 ft | 406 kts | 302° |
| 2026-04-30 01:31 | 22.24727 | -73.90046 | 38019 ft | 406 kts | 302° |
| 2026-04-30 01:31 | 22.28171 | -73.94876 | 38020 ft | 406 kts | 302° |
| 2026-04-30 01:32 | 22.31620 | -73.99719 | 38020 ft | 407 kts | 303° |
| 2026-04-30 01:32 | 22.35069 | -74.04564 | 38021 ft | 407 kts | 303° |
| 2026-04-30 01:33 | 22.38515 | -74.09412 | 38022 ft | 408 kts | 303° |
| 2026-04-30 01:33 | 22.41983 | -74.14293 | 38030 ft | 408 kts | 303° |
| 2026-04-30 01:34 | 22.45428 | -74.19147 | 38026 ft | 408 kts | 303° |
| 2026-04-30 01:34 | 22.48884 | -74.24022 | 38026 ft | 409 kts | 303° |
| 2026-04-30 01:35 | 22.52344 | -74.28906 | 38030 ft | 409 kts | 303° |
| 2026-04-30 01:35 | 22.55813 | -74.33807 | 38020 ft | 409 kts | 303° |
| 2026-04-30 01:36 | 22.59255 | -74.38675 | 38030 ft | 410 kts | 303° |
| 2026-04-30 01:36 | 22.62729 | -74.43591 | 38032 ft | 409 kts | 304° |
| 2026-04-30 01:37 | 22.66176 | -74.48476 | 38021 ft | 409 kts | 304° |
| 2026-04-30 01:37 | 22.69644 | -74.53393 | 38015 ft | 409 kts | 304° |
| 2026-04-30 01:38 | 22.73086 | -74.58280 | 38020 ft | 408 kts | 304° |
| 2026-04-30 01:38 | 22.76520 | -74.63159 | 38023 ft | 408 kts | 304° |
| 2026-04-30 01:39 | 22.79959 | -74.68050 | 38022 ft | 407 kts | 304° |
| 2026-04-30 01:39 | 22.83388 | -74.72932 | 38024 ft | 407 kts | 304° |
| 2026-04-30 01:40 | 22.86810 | -74.77808 | 38028 ft | 406 kts | 304° |
| 2026-04-30 01:40 | 22.90228 | -74.82683 | 38027 ft | 406 kts | 304° |
| 2026-04-30 01:41 | 22.93645 | -74.87562 | 38026 ft | 406 kts | 304° |
| 2026-04-30 01:41 | 22.97068 | -74.92453 | 38021 ft | 406 kts | 304° |
| 2026-04-30 01:42 | 23.00463 | -74.97309 | 38027 ft | 406 kts | 304° |
| 2026-04-30 01:42 | 23.03880 | -75.02202 | 38022 ft | 407 kts | 304° |
| 2026-04-30 01:43 | 23.07301 | -75.07104 | 38031 ft | 407 kts | 304° |
| 2026-04-30 01:43 | 23.11050 | -75.11729 | 38040 ft | 411 kts | 313° |
| 2026-04-30 01:44 | 23.15229 | -75.15987 | 38029 ft | 412 kts | 313° |
| 2026-04-30 01:44 | 23.19427 | -75.20246 | 38037 ft | 413 kts | 313° |
| 2026-04-30 01:45 | 23.23617 | -75.24535 | 38035 ft | 413 kts | 313° |
| 2026-04-30 01:45 | 23.27799 | -75.28840 | 38036 ft | 414 kts | 313° |
| 2026-04-30 01:46 | 23.31979 | -75.33151 | 38033 ft | 414 kts | 313° |
| 2026-04-30 01:46 | 23.36141 | -75.37449 | 38038 ft | 415 kts | 313° |
| 2026-04-30 01:47 | 23.40332 | -75.41780 | 38039 ft | 415 kts | 313° |
| 2026-04-30 01:47 | 23.44515 | -75.46107 | 38037 ft | 415 kts | 313° |
| 2026-04-30 01:48 | 23.48670 | -75.50408 | 38035 ft | 415 kts | 313° |
| 2026-04-30 01:48 | 23.52860 | -75.54750 | 38032 ft | 414 kts | 313° |
| 2026-04-30 01:49 | 23.57042 | -75.59088 | 38036 ft | 414 kts | 313° |
| 2026-04-30 01:49 | 23.61213 | -75.63418 | 38037 ft | 414 kts | 313° |
| 2026-04-30 01:50 | 23.65393 | -75.67761 | 38038 ft | 414 kts | 313° |
| 2026-04-30 01:50 | 23.69528 | -75.72063 | 38041 ft | 413 kts | 313° |
| 2026-04-30 01:51 | 23.73716 | -75.76422 | 38039 ft | 413 kts | 314° |
| 2026-04-30 01:51 | 23.77850 | -75.80731 | 38039 ft | 413 kts | 314° |
| 2026-04-30 01:52 | 23.82005 | -75.85064 | 38041 ft | 412 kts | 314° |
| 2026-04-30 01:52 | 23.82709 | -75.85798 | 38038 ft | 412 kts | 314° |